createdAt,value
2017-05-06T00:00:29.266Z,95.00
2017-05-06T00:02:59.040Z,94.90
2017-05-06T00:05:28.020Z,94.80
2017-05-06T00:07:57.328Z,94.70
2017-05-06T00:10:26.333Z,94.60
2017-05-06T00:12:55.306Z,94.60
2017-05-06T00:15:24.531Z,94.40
2017-05-06T00:17:53.548Z,94.50
2017-05-06T00:20:22.538Z,94.30
2017-05-06T00:22:52.267Z,94.30
2017-05-06T00:25:21.271Z,94.30
2017-05-06T00:27:50.547Z,94.30
2017-05-06T00:30:19.551Z,94.40
2017-05-06T00:32:48.534Z,94.30
2017-05-06T00:35:17.890Z,94.30
2017-05-06T00:37:46.880Z,94.20
2017-05-06T00:40:15.863Z,94.30
2017-05-06T00:42:44.855Z,94.20
2017-05-06T00:45:13.821Z,94.10
2017-05-06T00:47:43.167Z,94.20
2017-05-06T00:50:12.139Z,94.10
2017-05-06T00:52:41.116Z,94.20
2017-05-06T00:55:10.365Z,94.20
2017-05-06T00:57:39.378Z,94.30
2017-05-06T01:00:08.417Z,94.30
2017-05-06T01:02:37.713Z,94.30
2017-05-06T01:05:06.708Z,94.30
2017-05-06T01:07:35.682Z,94.30
2017-05-06T01:10:05.000Z,94.30
2017-05-06T01:12:33.990Z,94.30
2017-05-06T01:15:02.964Z,94.20
2017-05-06T01:17:31.970Z,94.20
2017-05-06T01:20:00.958Z,94.10
2017-05-06T01:22:30.233Z,94.10
2017-05-06T01:24:59.208Z,94.10
2017-05-06T01:27:28.183Z,94.20
2017-05-06T01:29:57.159Z,94.30
2017-05-06T01:32:26.898Z,94.30
2017-05-06T01:34:56.188Z,94.20
2017-05-06T01:37:25.202Z,94.20
2017-05-06T01:39:54.205Z,94.30
2017-05-06T01:42:23.196Z,94.30
2017-05-06T01:44:52.171Z,94.20
2017-05-06T01:47:21.211Z,94.20
2017-05-06T01:49:50.193Z,94.10
2017-05-06T01:52:19.472Z,94.10
2017-05-06T01:54:48.451Z,94.20
2017-05-06T01:57:17.421Z,94.30
2017-05-06T01:59:46.415Z,94.30
2017-05-06T02:02:15.408Z,94.20
2017-05-06T02:04:44.741Z,94.30
2017-05-06T02:07:13.727Z,94.30
2017-05-06T02:09:42.691Z,94.30
2017-05-06T02:12:11.692Z,94.20
2017-05-06T02:14:40.684Z,94.30
2017-05-06T02:17:10.013Z,94.50
2017-05-06T02:19:38.924Z,94.60
2017-05-06T02:22:07.924Z,94.60
2017-05-06T02:24:37.288Z,94.60
2017-05-06T02:27:06.270Z,94.50
2017-05-06T02:29:35.264Z,94.40
2017-05-06T02:32:04.261Z,94.40
2017-05-06T02:34:33.243Z,94.40
2017-05-06T02:37:02.558Z,94.30
2017-05-06T02:39:31.538Z,94.20
2017-05-06T02:42:00.530Z,94.10
2017-05-06T02:44:29.829Z,94.20
2017-05-06T02:46:58.817Z,94.20
2017-05-06T02:49:27.804Z,94.20
2017-05-06T02:51:57.155Z,94.20
2017-05-06T02:54:26.178Z,94.20
2017-05-06T02:56:55.062Z,94.20
2017-05-06T02:59:24.094Z,94.20
2017-05-06T03:01:53.080Z,94.10
2017-05-06T03:04:22.064Z,94.10
2017-05-06T03:06:51.054Z,94.20
2017-05-06T03:09:20.051Z,94.30
2017-05-06T03:11:49.037Z,94.30
2017-05-06T03:14:18.349Z,94.20
2017-05-06T03:16:47.332Z,94.20
2017-05-06T03:19:16.319Z,94.10
2017-05-06T03:21:45.756Z,94.10
2017-05-06T03:24:15.460Z,94.00
2017-05-06T03:26:45.549Z,94.00
2017-05-06T03:29:14.630Z,93.90
2017-05-06T03:31:43.615Z,94.10
2017-05-06T03:34:12.629Z,94.20
2017-05-06T03:36:41.610Z,94.30
2017-05-06T03:39:10.973Z,94.30
2017-05-06T03:41:39.961Z,94.20
2017-05-06T03:44:08.943Z,94.20
2017-05-06T03:46:38.258Z,94.10
2017-05-06T03:49:07.227Z,94.00
2017-05-06T03:51:36.197Z,94.10
2017-05-06T03:54:06.253Z,94.20
2017-05-06T03:56:35.233Z,94.10
2017-05-06T03:59:04.194Z,94.20
2017-05-06T04:01:33.937Z,94.10
2017-05-06T04:04:02.819Z,94.10
2017-05-06T04:06:32.192Z,94.10
2017-05-06T04:09:01.894Z,94.10
2017-05-06T04:11:30.845Z,94.00
2017-05-06T04:13:59.873Z,94.00
2017-05-06T04:16:28.845Z,94.20
2017-05-06T04:18:57.791Z,94.20
2017-05-06T04:21:26.747Z,94.20
2017-05-06T04:23:56.013Z,94.20
2017-05-06T04:26:24.956Z,94.20
2017-05-06T04:28:54.688Z,94.20
2017-05-06T04:31:23.708Z,94.10
2017-05-06T04:33:52.655Z,94.10
2017-05-06T04:36:21.642Z,94.30
2017-05-06T04:38:50.614Z,94.40
2017-05-06T04:41:20.605Z,94.70
2017-05-06T04:43:49.503Z,94.40
2017-05-06T04:46:19.125Z,94.50
2017-05-06T04:48:49.174Z,94.90
2017-05-06T04:51:18.156Z,94.80
2017-05-06T04:53:47.494Z,95.00
2017-05-06T04:56:16.454Z,95.10
2017-05-06T04:58:45.413Z,95.20
2017-05-06T05:01:15.486Z,95.30
2017-05-06T05:03:44.455Z,95.20
2017-05-06T05:06:13.425Z,95.40
2017-05-06T05:08:42.412Z,95.40
2017-05-06T05:11:11.384Z,95.80
2017-05-06T05:13:40.754Z,95.60
2017-05-06T05:16:09.741Z,95.90
2017-05-06T05:18:38.703Z,96.10
2017-05-06T05:21:08.031Z,96.20
2017-05-06T05:23:37.013Z,96.30
2017-05-06T05:26:05.979Z,96.50
2017-05-06T05:28:34.958Z,96.80
2017-05-06T05:31:03.920Z,97.40
2017-05-06T05:33:32.896Z,97.50
2017-05-06T05:36:01.872Z,97.50
2017-05-06T05:38:31.129Z,97.50
2017-05-06T05:41:00.116Z,97.50
2017-05-06T05:43:29.819Z,97.50
2017-05-06T05:45:59.890Z,97.30
2017-05-06T05:48:28.849Z,96.90
2017-05-06T05:50:57.821Z,96.70
2017-05-06T05:53:27.537Z,96.60
2017-05-06T05:55:56.501Z,96.70
2017-05-06T05:58:26.519Z,96.10
2017-05-06T06:00:55.494Z,96.00
2017-05-06T06:03:24.460Z,95.90
2017-05-06T06:05:53.866Z,95.70
2017-05-06T06:08:22.843Z,95.30
2017-05-06T06:10:51.778Z,95.10
2017-05-06T06:13:21.126Z,94.70
2017-05-06T06:15:50.091Z,94.50
2017-05-06T06:18:19.064Z,94.70
2017-05-06T06:20:49.050Z,94.40
2017-05-06T06:23:18.023Z,93.90
2017-05-06T06:25:46.977Z,93.60
2017-05-06T06:28:17.029Z,93.60
2017-05-06T06:30:46.003Z,93.10
2017-05-06T06:33:15.301Z,92.90
2017-05-06T06:35:44.265Z,92.50
2017-05-06T06:38:13.228Z,92.50
2017-05-06T06:40:42.499Z,92.40
2017-05-06T06:43:11.453Z,92.30
2017-05-06T06:45:40.430Z,92.90
2017-05-06T06:48:10.158Z,92.30
2017-05-06T06:50:39.123Z,91.90
2017-05-06T06:53:09.204Z,91.80
2017-05-06T06:55:38.157Z,91.60
2017-05-06T06:58:07.166Z,91.60
2017-05-06T07:00:36.964Z,91.70
2017-05-06T07:03:05.933Z,91.60
2017-05-06T07:05:35.922Z,91.40
2017-05-06T07:08:04.926Z,91.10
2017-05-06T07:10:34.620Z,90.80
2017-05-06T07:13:03.593Z,90.40
2017-05-06T07:15:32.600Z,89.90
2017-05-06T07:18:01.509Z,90.30
2017-05-06T07:20:31.220Z,90.00
2017-05-06T07:23:01.297Z,89.60
2017-05-06T07:25:30.278Z,88.80
2017-05-06T07:27:59.273Z,89.00
2017-05-06T07:30:28.513Z,88.50
2017-05-06T07:32:58.293Z,88.60
2017-05-06T07:35:27.176Z,89.20
2017-05-06T07:37:56.179Z,89.20
2017-05-06T07:40:25.161Z,89.30
2017-05-06T07:42:54.395Z,89.30
2017-05-06T07:45:24.108Z,89.40
2017-05-06T07:47:54.183Z,89.30
2017-05-06T07:50:23.187Z,89.10
2017-05-06T07:52:52.164Z,88.00
2017-05-06T07:55:21.150Z,87.70
2017-05-06T07:57:50.179Z,87.30
2017-05-06T08:00:20.365Z,86.80
2017-05-06T08:02:49.325Z,86.70
2017-05-06T08:05:18.294Z,86.30
2017-05-06T08:07:47.654Z,86.30
2017-05-06T08:10:16.626Z,86.30
2017-05-06T08:12:45.600Z,85.50
2017-05-06T08:15:14.963Z,85.00
2017-05-06T08:17:44.655Z,83.60
2017-05-06T08:20:13.643Z,83.00
2017-05-06T08:22:42.646Z,82.90
2017-05-06T08:25:12.360Z,83.00
2017-05-06T08:27:42.443Z,81.50
2017-05-06T08:30:11.415Z,81.50
2017-05-06T08:32:40.441Z,81.70
2017-05-06T08:35:10.270Z,81.90
2017-05-06T08:37:40.003Z,82.40
2017-05-06T08:40:08.968Z,82.10
2017-05-06T08:42:38.696Z,82.40
2017-05-06T08:45:08.053Z,82.10
2017-05-06T08:47:37.018Z,80.60
2017-05-06T08:50:05.973Z,79.80
2017-05-06T08:52:35.259Z,79.80
2017-05-06T08:55:04.875Z,80.40
2017-05-06T08:57:33.872Z,80.80
2017-05-06T09:00:02.859Z,80.20
2017-05-06T09:02:32.553Z,77.40
2017-05-06T09:05:02.654Z,76.20
2017-05-06T09:07:31.624Z,76.10
2017-05-06T09:10:00.588Z,76.20
2017-05-06T09:12:29.591Z,76.50
2017-05-06T09:14:58.554Z,75.20
2017-05-06T09:17:27.866Z,74.10
2017-05-06T09:19:56.851Z,75.30
2017-05-06T09:22:25.797Z,76.00
2017-05-06T09:24:55.184Z,75.00
2017-05-06T09:27:24.151Z,73.60
2017-05-06T09:29:53.113Z,70.80
2017-05-06T09:32:22.472Z,69.70
2017-05-06T09:34:51.431Z,68.20
2017-05-06T09:37:20.387Z,67.30
2017-05-06T09:39:50.090Z,64.80
2017-05-06T09:42:19.795Z,64.90
2017-05-06T09:44:49.790Z,66.70
2017-05-06T09:47:18.749Z,67.30
2017-05-06T09:49:47.719Z,67.30
2017-05-06T09:52:16.783Z,64.50
2017-05-06T09:54:46.486Z,65.70
2017-05-06T09:57:16.480Z,64.10
2017-05-06T09:59:45.456Z,61.30
2017-05-06T10:02:14.425Z,62.30
2017-05-06T10:04:43.739Z,60.10
2017-05-06T10:07:12.675Z,61.90
2017-05-06T10:09:42.366Z,61.60
2017-05-06T10:12:11.328Z,58.90
2017-05-06T10:14:40.281Z,57.40
2017-05-06T10:17:09.625Z,57.40
2017-05-06T10:19:38.569Z,56.90
2017-05-06T10:22:07.527Z,56.00
2017-05-06T10:24:36.505Z,54.30
2017-05-06T10:27:05.450Z,55.80
2017-05-06T10:29:34.910Z,55.70
2017-05-06T10:32:03.869Z,53.10
2017-05-06T10:34:32.842Z,51.40
2017-05-06T10:37:01.817Z,51.00
2017-05-06T10:39:30.787Z,49.80
2017-05-06T10:42:00.519Z,49.30
2017-05-06T10:44:29.471Z,47.90
2017-05-06T10:46:58.693Z,46.90
2017-05-06T10:49:27.664Z,46.70
2017-05-06T10:51:56.615Z,47.80
2017-05-06T10:54:25.576Z,45.90
2017-05-06T10:56:54.522Z,44.80
2017-05-06T10:59:23.468Z,44.00
2017-05-06T11:01:52.783Z,44.20
2017-05-06T11:04:21.731Z,42.90
2017-05-06T11:06:51.427Z,43.10
2017-05-06T11:09:21.512Z,42.60
2017-05-06T11:11:50.469Z,39.60
2017-05-06T11:14:19.414Z,40.60
2017-05-06T11:16:48.398Z,40.40
2017-05-06T11:19:17.357Z,38.70
2017-05-06T11:21:46.676Z,39.90
2017-05-06T11:24:15.646Z,38.30
2017-05-06T11:26:44.582Z,37.00
2017-05-06T11:29:13.892Z,34.50
2017-05-06T11:31:43.615Z,34.60
2017-05-06T11:34:12.978Z,34.70
2017-05-06T11:36:41.918Z,34.40
2017-05-06T11:39:10.874Z,34.60
2017-05-06T11:41:40.586Z,33.60
2017-05-06T11:44:10.286Z,33.30
2017-05-06T11:46:39.654Z,32.70
2017-05-06T11:49:08.672Z,33.70
2017-05-06T11:51:37.619Z,33.70
2017-05-06T11:54:06.613Z,32.70
2017-05-06T11:56:35.627Z,32.40
2017-05-06T11:59:04.858Z,33.00
2017-05-06T12:01:34.555Z,32.20
2017-05-06T12:04:03.510Z,32.80
2017-05-06T12:06:32.458Z,30.00
2017-05-06T12:09:01.412Z,29.50
2017-05-06T12:11:30.457Z,28.60
2017-05-06T12:13:59.417Z,28.80
2017-05-06T12:16:29.138Z,29.20
2017-05-06T12:18:58.116Z,29.20
2017-05-06T12:21:28.188Z,28.10
2017-05-06T12:23:57.142Z,27.80
2017-05-06T12:26:26.126Z,26.90
2017-05-06T12:28:55.494Z,26.90
2017-05-06T12:31:24.490Z,27.00
2017-05-06T12:33:53.442Z,27.60
2017-05-06T12:36:22.417Z,27.60
2017-05-06T12:38:51.361Z,27.80
2017-05-06T12:41:20.648Z,26.90
2017-05-06T12:43:49.616Z,26.40
2017-05-06T12:46:18.578Z,27.80
2017-05-06T12:48:47.535Z,27.70
2017-05-06T12:51:16.514Z,28.00
2017-05-06T12:53:45.822Z,26.10
2017-05-06T12:56:14.773Z,24.90
2017-05-06T12:58:43.759Z,25.10
2017-05-06T13:01:12.757Z,24.40
2017-05-06T13:03:41.787Z,24.90
2017-05-06T13:06:11.058Z,25.80
2017-05-06T13:08:40.013Z,25.70
2017-05-06T13:11:08.972Z,24.60
2017-05-06T13:13:37.867Z,25.10
2017-05-06T13:16:06.819Z,25.70
2017-05-06T13:18:36.122Z,25.90
2017-05-06T13:21:05.040Z,26.20
2017-05-06T13:23:33.994Z,26.00
2017-05-06T13:26:02.984Z,26.80
2017-05-06T13:28:31.948Z,26.80
2017-05-06T13:31:00.841Z,27.00
2017-05-06T13:33:29.830Z,27.50
2017-05-06T13:35:59.081Z,27.50
2017-05-06T13:38:28.017Z,27.30
2017-05-06T13:40:56.975Z,27.30
2017-05-06T13:43:27.177Z,26.80
2017-05-06T13:45:56.124Z,26.60
2017-05-06T13:48:25.484Z,26.00
2017-05-06T13:50:55.198Z,25.90
2017-05-06T13:53:24.934Z,26.00
2017-05-06T13:55:54.189Z,25.90
2017-05-06T13:58:23.313Z,26.20
2017-05-06T14:00:52.277Z,25.70
2017-05-06T14:03:21.545Z,25.80
2017-05-06T14:05:56.063Z,26.00
2017-05-06T14:08:31.112Z,28.70
2017-05-06T14:11:07.096Z,31.20
2017-05-06T14:13:42.154Z,32.70
2017-05-06T14:16:17.607Z,34.70
2017-05-06T14:18:52.668Z,35.10
2017-05-06T14:21:27.930Z,34.10
2017-05-06T14:24:02.835Z,32.90
2017-05-06T14:26:38.790Z,33.80
2017-05-06T14:29:14.223Z,35.50
2017-05-06T14:31:49.521Z,36.30
2017-05-06T14:34:24.461Z,37.30
2017-05-06T14:36:59.789Z,38.10
2017-05-06T14:39:35.127Z,39.10
2017-05-06T14:42:10.531Z,39.60
2017-05-06T14:44:45.562Z,40.10
2017-05-06T14:47:14.520Z,40.30
2017-05-06T14:49:43.489Z,40.80
2017-05-06T14:52:12.486Z,40.70
2017-05-06T14:54:47.011Z,40.30
2017-05-06T14:57:21.726Z,40.10
2017-05-06T14:59:57.026Z,40.30
2017-05-06T15:02:32.864Z,41.40
2017-05-06T15:05:07.639Z,41.80
2017-05-06T15:07:42.599Z,42.50
2017-05-06T15:10:17.890Z,43.10
2017-05-06T15:12:52.688Z,43.20
2017-05-06T15:15:28.042Z,43.30
2017-05-06T15:18:03.035Z,43.30
2017-05-06T15:20:37.687Z,43.30
2017-05-06T15:23:12.696Z,43.20
2017-05-06T15:25:47.522Z,42.40
2017-05-06T15:28:21.658Z,42.40
2017-05-06T15:30:56.796Z,42.90
2017-05-06T15:33:32.451Z,42.40
2017-05-06T15:36:07.886Z,42.00
2017-05-06T15:38:43.004Z,41.40
2017-05-06T15:41:18.276Z,39.80
2017-05-06T15:43:47.056Z,38.20
2017-05-06T15:46:15.996Z,38.00
2017-05-06T15:48:44.954Z,37.70
2017-05-06T15:51:14.675Z,37.50
2017-05-06T15:53:43.616Z,35.10
2017-05-06T15:56:12.574Z,34.60
2017-05-06T15:58:41.558Z,34.80
2017-05-06T16:01:10.881Z,36.00
2017-05-06T16:03:39.905Z,37.20
2017-05-06T16:06:09.643Z,37.70
2017-05-06T16:08:38.995Z,38.20
2017-05-06T16:11:07.959Z,37.50
2017-05-06T16:13:36.922Z,37.40
2017-05-06T16:16:05.895Z,37.80
2017-05-06T16:18:35.590Z,38.60
2017-05-06T16:21:04.861Z,39.20
2017-05-06T16:23:33.840Z,39.30
2017-05-06T16:26:02.791Z,39.90
2017-05-06T16:28:32.510Z,40.60
2017-05-06T16:31:01.483Z,41.10
2017-05-06T16:33:31.533Z,41.00
2017-05-06T16:36:00.485Z,41.50
2017-05-06T16:38:30.188Z,41.50
2017-05-06T16:40:59.167Z,41.40
2017-05-06T16:43:28.135Z,41.10
2017-05-06T16:45:57.384Z,40.90
2017-05-06T16:48:27.491Z,41.10
2017-05-06T16:50:56.470Z,41.40
2017-05-06T16:53:26.965Z,41.90
2017-05-06T16:55:55.948Z,42.40
2017-05-06T16:58:24.936Z,43.00
2017-05-06T17:00:53.922Z,43.20
2017-05-06T17:03:23.177Z,43.30
2017-05-06T17:05:52.890Z,43.20
2017-05-06T17:08:22.579Z,43.30
2017-05-06T17:10:51.874Z,44.00
2017-05-06T17:13:20.841Z,44.10
2017-05-06T17:15:49.825Z,44.00
2017-05-06T17:18:19.121Z,44.10
2017-05-06T17:20:48.084Z,44.10
2017-05-06T17:23:17.039Z,45.10
2017-05-06T17:25:46.044Z,44.70
2017-05-06T17:28:16.145Z,44.50
2017-05-06T17:30:45.015Z,44.80
2017-05-06T17:33:14.707Z,45.00
2017-05-06T17:35:43.716Z,44.70
2017-05-06T17:38:12.700Z,44.90
2017-05-06T17:40:42.000Z,45.00
2017-05-06T17:43:10.961Z,45.20
2017-05-06T17:45:39.929Z,45.60
2017-05-06T17:48:10.014Z,45.90
2017-05-06T17:50:39.129Z,47.20
2017-05-06T17:53:08.867Z,48.20
2017-05-06T17:55:37.832Z,49.40
2017-05-06T17:58:07.534Z,49.80
2017-05-06T18:00:36.508Z,50.00
2017-05-06T18:03:05.895Z,50.50
2017-05-06T18:05:34.893Z,49.90
2017-05-06T18:08:03.858Z,49.70
2017-05-06T18:10:33.097Z,49.20
2017-05-06T18:13:02.067Z,49.20
2017-05-06T18:15:31.042Z,49.90
2017-05-06T18:18:00.366Z,50.90
2017-05-06T18:20:29.316Z,51.30
2017-05-06T18:22:58.265Z,51.40
2017-05-06T18:25:27.244Z,51.40
2017-05-06T18:27:56.191Z,52.40
2017-05-06T18:30:25.184Z,54.10
2017-05-06T18:32:54.141Z,56.00
2017-05-06T18:35:23.893Z,58.00
2017-05-06T18:37:52.788Z,58.80
2017-05-06T18:40:22.102Z,59.70
2017-05-06T18:42:51.086Z,60.60
2017-05-06T18:45:20.093Z,61.00
2017-05-06T18:47:49.082Z,61.90
2017-05-06T18:50:18.093Z,62.40
2017-05-06T18:52:48.088Z,63.00
2017-05-06T18:55:17.041Z,63.80
2017-05-06T18:57:45.989Z,64.60
2017-05-06T19:00:16.077Z,66.60
2017-05-06T19:02:45.048Z,67.90
2017-05-06T19:05:14.021Z,69.10
2017-05-06T19:07:43.033Z,70.90
2017-05-06T19:10:12.012Z,70.80
2017-05-06T19:12:40.993Z,70.10
2017-05-06T19:15:09.963Z,69.70
2017-05-06T19:17:39.945Z,69.60
2017-05-06T19:20:08.916Z,68.80
2017-05-06T19:22:37.874Z,67.30
2017-05-06T19:25:06.882Z,67.00
2017-05-06T19:27:35.854Z,66.50
2017-05-06T19:30:05.167Z,65.80
2017-05-06T19:32:34.137Z,66.00
2017-05-06T19:35:03.120Z,66.60
2017-05-06T19:37:32.386Z,68.00
2017-05-06T19:40:01.361Z,69.80
2017-05-06T19:42:30.248Z,70.70
2017-05-06T19:44:59.995Z,71.00
2017-05-06T19:47:29.745Z,71.60
2017-05-06T19:49:58.754Z,72.80
2017-05-06T19:52:27.752Z,72.60
2017-05-06T19:54:56.759Z,72.60
2017-05-06T19:57:25.722Z,73.80
2017-05-06T19:59:55.192Z,73.80
2017-05-06T20:02:24.164Z,74.10
2017-05-06T20:04:53.902Z,73.10
2017-05-06T20:07:22.894Z,72.80
2017-05-06T20:09:52.238Z,73.30
2017-05-06T20:12:21.199Z,74.00
2017-05-06T20:14:50.183Z,73.00
2017-05-06T20:17:19.424Z,72.50
2017-05-06T20:19:48.301Z,73.00
2017-05-06T20:22:18.047Z,73.30
2017-05-06T20:24:47.419Z,74.10
2017-05-06T20:27:16.372Z,74.30
2017-05-06T20:29:45.433Z,74.80
2017-05-06T20:32:15.156Z,75.00
2017-05-06T20:34:44.095Z,75.60
2017-05-06T20:37:13.375Z,76.30
2017-05-06T20:39:42.348Z,76.40
2017-05-06T20:42:11.301Z,74.30
2017-05-06T20:44:41.378Z,70.10
2017-05-06T20:47:10.331Z,68.90
2017-05-06T20:49:39.313Z,66.70
2017-05-06T20:52:08.654Z,64.70
2017-05-06T20:54:37.626Z,63.10
2017-05-06T20:57:06.593Z,62.50
2017-05-06T20:59:35.855Z,62.80
2017-05-06T21:02:04.865Z,62.60
2017-05-06T21:04:34.591Z,63.00
2017-05-06T21:07:03.967Z,63.50
2017-05-06T21:09:32.924Z,64.50
2017-05-06T21:12:01.873Z,65.30
2017-05-06T21:14:30.868Z,66.30
2017-05-06T21:16:59.854Z,67.40
2017-05-06T21:19:28.856Z,68.30
2017-05-06T21:21:57.831Z,69.00
2017-05-06T21:24:26.935Z,69.30
2017-05-06T21:26:55.890Z,69.60
2017-05-06T21:29:25.166Z,69.60
2017-05-06T21:31:54.130Z,70.20
2017-05-06T21:34:23.182Z,71.00
2017-05-06T21:36:52.929Z,70.80
2017-05-06T21:39:21.906Z,71.00
2017-05-06T21:41:51.242Z,71.10
2017-05-06T21:44:20.216Z,71.70
2017-05-06T21:46:49.167Z,72.30
2017-05-06T21:49:19.245Z,73.00
2017-05-06T21:51:48.218Z,73.10
2017-05-06T21:54:17.191Z,73.10
2017-05-06T21:56:46.434Z,73.60
2017-05-06T21:59:15.428Z,74.30
2017-05-06T22:01:44.403Z,76.80
2017-05-06T22:04:13.361Z,78.30
2017-05-06T22:06:42.317Z,80.80
2017-05-06T22:09:12.390Z,82.00
2017-05-06T22:11:41.397Z,83.20
2017-05-06T22:14:10.361Z,84.00
2017-05-06T22:16:39.679Z,84.80
2017-05-06T22:19:08.677Z,85.00
2017-05-06T22:21:37.633Z,85.30
2017-05-06T22:24:06.954Z,85.80
2017-05-06T22:26:35.921Z,86.00
2017-05-06T22:29:04.897Z,86.30
2017-05-06T22:31:33.865Z,86.40
2017-05-06T22:34:03.564Z,86.10
2017-05-06T22:36:33.565Z,86.50
2017-05-06T22:39:02.545Z,86.50
2017-05-06T22:41:31.523Z,86.60
2017-05-06T22:44:00.515Z,86.80
2017-05-06T22:46:29.495Z,86.90
2017-05-06T22:48:58.483Z,87.20
2017-05-06T22:51:27.450Z,87.30
2017-05-06T22:53:56.440Z,88.20
2017-05-06T22:56:25.415Z,87.70
2017-05-06T22:58:55.150Z,88.00
2017-05-06T23:01:24.144Z,88.00
2017-05-06T23:03:53.134Z,88.10
2017-05-06T23:06:22.106Z,88.10
2017-05-06T23:08:51.833Z,88.50
2017-05-06T23:11:20.805Z,88.80
2017-05-06T23:13:50.889Z,88.00
2017-05-06T23:16:20.612Z,88.10
2017-05-06T23:18:49.580Z,88.40
2017-05-06T23:21:18.862Z,88.50
2017-05-06T23:23:47.859Z,88.30
2017-05-06T23:26:16.889Z,88.40
2017-05-06T23:28:46.614Z,88.70
2017-05-06T23:31:32.448Z,88.80
2017-05-06T23:34:01.722Z,89.10
2017-05-06T23:36:30.688Z,89.30
2017-05-06T23:38:59.751Z,89.50
2017-05-06T23:41:29.019Z,89.40
2017-05-06T23:43:58.140Z,89.70
2017-05-06T23:46:27.093Z,89.90
2017-05-06T23:48:56.426Z,90.10
2017-05-06T23:51:25.390Z,90.10
2017-05-06T23:53:54.333Z,90.10
2017-05-06T23:56:23.977Z,90.10
2017-05-06T23:58:52.960Z,90.10
